EZS32GV LSGG-LFKJ
Flight info
| Callsign | EZS32GV |
|---|---|
| Flight time | 0h 56m |
| Altitude | 31000 |
| Route | MEDAM DCT VEVAR DCT BARSO DCT KOLON DCT OMARD M623 VAREK VAREK3S |
| Aircraft | A320/M-SDE2E3FGHIJ1RWXYZ/LB1 |
Departure
| Time | 2026-04-23 13:41 |
|---|---|
| Airport | Geneva International Airport (LSGG) |
Arrival
| Time | 2026-04-23 14:37 |
|---|---|
| Airport | Ajaccio Napoléon Bonaparte airport (LFKJ) |
| Time | Latitude | Longitude | Altitude | Speed | Heading |
|---|---|---|---|---|---|
| 2026-04-23 12:45 | 46.23151 | 6.10747 | 1402 ft | 0 kts | 135° |
| 2026-04-23 13:32 | 46.23160 | 6.10735 | 1406 ft | 4 kts | 137° |
| 2026-04-23 13:32 | 46.23181 | 6.10712 | 1393 ft | 4 kts | 159° |
| 2026-04-23 13:32 | 46.23201 | 6.10711 | 1401 ft | 3 kts | 224° |
| 2026-04-23 13:32 | 46.23214 | 6.10729 | 1393 ft | 0 kts | 225° |
| 2026-04-23 13:34 | 46.23202 | 6.10712 | 1393 ft | 6 kts | 225° |
| 2026-04-23 13:34 | 46.23165 | 6.10657 | 1402 ft | 8 kts | 225° |
| 2026-04-23 13:35 | 46.23114 | 6.10583 | 1406 ft | 11 kts | 225° |
| 2026-04-23 13:35 | 46.23058 | 6.10500 | 1398 ft | 14 kts | 225° |
| 2026-04-23 13:35 | 46.22989 | 6.10400 | 1402 ft | 13 kts | 225° |
| 2026-04-23 13:35 | 46.22956 | 6.10314 | 1393 ft | 10 kts | 281° |
| 2026-04-23 13:36 | 46.23011 | 6.10223 | 1400 ft | 13 kts | 315° |
| 2026-04-23 13:36 | 46.23057 | 6.10143 | 1402 ft | 8 kts | 278° |
| 2026-04-23 13:36 | 46.23018 | 6.10071 | 1405 ft | 13 kts | 225° |
| 2026-04-23 13:36 | 46.22944 | 6.09963 | 1395 ft | 15 kts | 225° |
| 2026-04-23 13:37 | 46.22873 | 6.09859 | 1405 ft | 14 kts | 225° |
| 2026-04-23 13:37 | 46.22807 | 6.09762 | 1401 ft | 13 kts | 226° |
| 2026-04-23 13:37 | 46.22739 | 6.09662 | 1401 ft | 14 kts | 225° |
| 2026-04-23 13:37 | 46.22674 | 6.09567 | 1402 ft | 12 kts | 225° |
| 2026-04-23 13:38 | 46.22616 | 6.09484 | 1398 ft | 11 kts | 225° |
| 2026-04-23 13:38 | 46.22571 | 6.09403 | 1410 ft | 10 kts | 239° |
| 2026-04-23 13:38 | 46.22548 | 6.09305 | 1412 ft | 9 kts | 245° |
| 2026-04-23 13:38 | 46.22497 | 6.09253 | 1413 ft | 8 kts | 208° |
| 2026-04-23 13:39 | 46.22472 | 6.09204 | 1416 ft | 8 kts | 259° |
| 2026-04-23 13:39 | 46.22507 | 6.09141 | 1414 ft | 9 kts | 356° |
| 2026-04-23 13:39 | 46.22572 | 6.09158 | 1417 ft | 10 kts | 2° |
| 2026-04-23 13:39 | 46.22621 | 6.09158 | 1420 ft | 6 kts | 32° |
| 2026-04-23 13:40 | 46.22654 | 6.09206 | 1420 ft | 9 kts | 45° |
| 2026-04-23 13:40 | 46.22813 | 6.09438 | 1420 ft | 68 kts | 45° |
| 2026-04-23 13:40 | 46.23305 | 6.10160 | 1399 ft | 131 kts | 45° |
| 2026-04-23 13:40 | 46.24048 | 6.11253 | 1638 ft | 159 kts | 46° |
| 2026-04-23 13:41 | 46.24798 | 6.12378 | 2492 ft | 154 kts | 45° |
| 2026-04-23 13:41 | 46.25546 | 6.13482 | 3301 ft | 154 kts | 45° |
| 2026-04-23 13:41 | 46.26300 | 6.14593 | 4002 ft | 155 kts | 45° |
| 2026-04-23 13:41 | 46.27055 | 6.15708 | 4623 ft | 156 kts | 44° |
| 2026-04-23 13:42 | 46.27854 | 6.16873 | 5062 ft | 174 kts | 44° |
| 2026-04-23 13:42 | 46.28764 | 6.18195 | 5346 ft | 196 kts | 44° |
| 2026-04-23 13:42 | 46.29792 | 6.19696 | 5611 ft | 224 kts | 45° |
| 2026-04-23 13:42 | 46.30943 | 6.21390 | 6041 ft | 248 kts | 45° |
| 2026-04-23 13:43 | 46.32195 | 6.23239 | 6687 ft | 263 kts | 45° |
| 2026-04-23 13:43 | 46.33492 | 6.25153 | 7534 ft | 269 kts | 46° |
| 2026-04-23 13:43 | 46.34812 | 6.27099 | 8433 ft | 273 kts | 47° |
| 2026-04-23 13:43 | 46.35956 | 6.29292 | 9330 ft | 275 kts | 65° |
| 2026-04-23 13:44 | 46.36452 | 6.31966 | 10229 ft | 278 kts | 88° |
| 2026-04-23 13:44 | 46.36131 | 6.34736 | 10970 ft | 289 kts | 111° |
| 2026-04-23 13:44 | 46.34922 | 6.37172 | 11341 ft | 312 kts | 140° |
| 2026-04-23 13:44 | 46.32927 | 6.38525 | 11988 ft | 327 kts | 167° |
| 2026-04-23 13:45 | 46.30627 | 6.38466 | 12765 ft | 336 kts | 186° |
| 2026-04-23 13:45 | 46.28300 | 6.37965 | 13593 ft | 340 kts | 186° |
| 2026-04-23 13:45 | 46.25950 | 6.37418 | 14366 ft | 344 kts | 187° |
| 2026-04-23 13:45 | 46.23582 | 6.36855 | 15087 ft | 346 kts | 187° |
| 2026-04-23 13:46 | 46.21225 | 6.36302 | 15799 ft | 349 kts | 186° |
| 2026-04-23 13:46 | 46.18816 | 6.35748 | 16538 ft | 352 kts | 186° |
| 2026-04-23 13:46 | 46.16390 | 6.35197 | 17274 ft | 354 kts | 186° |
| 2026-04-23 13:46 | 46.13953 | 6.34642 | 18013 ft | 356 kts | 186° |
| 2026-04-23 13:47 | 46.11499 | 6.34084 | 18702 ft | 359 kts | 186° |
| 2026-04-23 13:47 | 46.09023 | 6.33524 | 19320 ft | 361 kts | 186° |
| 2026-04-23 13:47 | 46.06526 | 6.32961 | 19894 ft | 365 kts | 186° |
| 2026-04-23 13:47 | 46.04008 | 6.32395 | 20482 ft | 368 kts | 186° |
| 2026-04-23 13:48 | 46.01472 | 6.31825 | 21057 ft | 371 kts | 186° |
| 2026-04-23 13:48 | 45.98911 | 6.31252 | 21619 ft | 374 kts | 186° |
| 2026-04-23 13:48 | 45.96325 | 6.30675 | 22192 ft | 378 kts | 186° |
| 2026-04-23 13:48 | 45.93718 | 6.30113 | 22724 ft | 379 kts | 183° |
| 2026-04-23 13:49 | 45.91085 | 6.30076 | 23230 ft | 379 kts | 172° |
| 2026-04-23 13:49 | 45.88504 | 6.30818 | 23757 ft | 379 kts | 160° |
| 2026-04-23 13:49 | 45.86082 | 6.32305 | 24217 ft | 380 kts | 148° |
| 2026-04-23 13:49 | 45.83895 | 6.34440 | 24640 ft | 381 kts | 141° |
| 2026-04-23 13:50 | 45.81767 | 6.36726 | 25073 ft | 383 kts | 141° |
| 2026-04-23 13:50 | 45.79622 | 6.39014 | 25517 ft | 385 kts | 141° |
| 2026-04-23 13:50 | 45.77459 | 6.41305 | 25992 ft | 387 kts | 141° |
| 2026-04-23 13:50 | 45.75291 | 6.43590 | 26476 ft | 388 kts | 141° |
| 2026-04-23 13:51 | 45.73114 | 6.45885 | 26936 ft | 389 kts | 141° |
| 2026-04-23 13:51 | 45.70932 | 6.48186 | 27365 ft | 391 kts | 141° |
| 2026-04-23 13:51 | 45.68738 | 6.50502 | 27791 ft | 393 kts | 141° |
| 2026-04-23 13:51 | 45.66534 | 6.52825 | 28228 ft | 395 kts | 141° |
| 2026-04-23 13:52 | 45.64320 | 6.55157 | 28689 ft | 397 kts | 141° |
| 2026-04-23 13:52 | 45.62092 | 6.57503 | 29136 ft | 399 kts | 141° |
| 2026-04-23 13:52 | 45.59856 | 6.59856 | 29557 ft | 400 kts | 141° |
| 2026-04-23 13:52 | 45.57610 | 6.62219 | 30001 ft | 402 kts | 141° |
| 2026-04-23 13:53 | 45.55351 | 6.64593 | 30386 ft | 405 kts | 141° |
| 2026-04-23 13:53 | 45.53077 | 6.66980 | 30693 ft | 408 kts | 141° |
| 2026-04-23 13:53 | 45.50781 | 6.69383 | 31001 ft | 411 kts | 141° |
| 2026-04-23 13:53 | 45.48462 | 6.71804 | 31204 ft | 415 kts | 141° |
| 2026-04-23 13:54 | 45.46157 | 6.74206 | 31231 ft | 403 kts | 141° |
| 2026-04-23 13:54 | 45.43931 | 6.76505 | 31232 ft | 390 kts | 142° |
| 2026-04-23 13:54 | 45.41732 | 6.78728 | 31233 ft | 386 kts | 142° |
| 2026-04-23 13:55 | 45.37352 | 6.83108 | 31249 ft | 385 kts | 142° |
| 2026-04-23 13:55 | 45.32969 | 6.87481 | 31232 ft | 385 kts | 142° |
| 2026-04-23 13:56 | 45.28569 | 6.91803 | 31239 ft | 386 kts | 147° |
| 2026-04-23 13:56 | 45.23513 | 6.94449 | 31242 ft | 394 kts | 167° |
| 2026-04-23 13:57 | 45.18053 | 6.95325 | 31240 ft | 396 kts | 170° |
| 2026-04-23 13:57 | 45.12582 | 6.96175 | 31237 ft | 396 kts | 169° |
| 2026-04-23 13:58 | 45.07102 | 6.97038 | 31226 ft | 396 kts | 169° |
| 2026-04-23 13:58 | 45.01654 | 6.97889 | 31230 ft | 397 kts | 169° |
| 2026-04-23 13:59 | 44.96166 | 6.98732 | 31213 ft | 397 kts | 169° |
| 2026-04-23 13:59 | 44.90672 | 6.99582 | 31207 ft | 398 kts | 169° |
| 2026-04-23 14:00 | 44.86097 | 7.00293 | 31210 ft | 398 kts | 169° |
| 2026-04-23 14:00 | 44.79645 | 7.01070 | 31211 ft | 402 kts | 178° |
| 2026-04-23 14:01 | 44.74063 | 7.00137 | 31214 ft | 405 kts | 184° |
| 2026-04-23 14:01 | 44.68464 | 6.99076 | 31201 ft | 406 kts | 184° |
| 2026-04-23 14:02 | 44.62850 | 6.98025 | 31214 ft | 408 kts | 184° |
| 2026-04-23 14:02 | 44.57228 | 6.96983 | 31212 ft | 408 kts | 184° |
| 2026-04-23 14:03 | 44.51599 | 6.95936 | 31209 ft | 408 kts | 184° |
| 2026-04-23 14:03 | 44.45969 | 6.94889 | 31211 ft | 408 kts | 184° |
| 2026-04-23 14:04 | 44.40339 | 6.93843 | 31223 ft | 408 kts | 184° |
| 2026-04-23 14:04 | 44.34701 | 6.92801 | 31207 ft | 409 kts | 185° |
| 2026-04-23 14:05 | 44.29051 | 6.91745 | 31220 ft | 410 kts | 185° |
| 2026-04-23 14:05 | 44.23431 | 6.90694 | 31209 ft | 410 kts | 185° |
| 2026-04-23 14:06 | 44.17772 | 6.89661 | 31200 ft | 410 kts | 185° |
| 2026-04-23 14:06 | 44.12096 | 6.89358 | 31199 ft | 407 kts | 171° |
| 2026-04-23 14:07 | 44.06459 | 6.90216 | 31196 ft | 408 kts | 171° |
| 2026-04-23 14:07 | 43.97982 | 6.91495 | 31197 ft | 410 kts | 172° |
| 2026-04-23 14:08 | 43.92296 | 6.92343 | 31201 ft | 412 kts | 172° |
| 2026-04-23 14:08 | 43.86590 | 6.93198 | 31203 ft | 413 kts | 172° |
| 2026-04-23 14:09 | 43.80870 | 6.94046 | 31209 ft | 414 kts | 173° |
| 2026-04-23 14:09 | 43.75139 | 6.95029 | 31209 ft | 416 kts | 166° |
| 2026-04-23 14:10 | 43.69800 | 6.97970 | 31208 ft | 414 kts | 146° |
| 2026-04-23 14:10 | 43.65176 | 7.02684 | 31214 ft | 414 kts | 141° |
| 2026-04-23 14:11 | 43.60579 | 7.07485 | 31219 ft | 415 kts | 141° |
| 2026-04-23 14:11 | 43.58243 | 7.09910 | 31255 ft | 426 kts | 141° |
| 2026-04-23 14:11 | 43.55861 | 7.12383 | 31239 ft | 430 kts | 141° |
| 2026-04-23 14:12 | 43.51061 | 7.17353 | 31241 ft | 432 kts | 141° |
| 2026-04-23 14:12 | 43.46251 | 7.22331 | 31245 ft | 432 kts | 141° |
| 2026-04-23 14:13 | 43.41448 | 7.27306 | 31240 ft | 432 kts | 141° |
| 2026-04-23 14:13 | 43.36635 | 7.32278 | 31221 ft | 434 kts | 141° |
| 2026-04-23 14:14 | 43.31817 | 7.37248 | 31214 ft | 437 kts | 142° |
| 2026-04-23 14:14 | 43.26899 | 7.42302 | 31169 ft | 440 kts | 142° |
| 2026-04-23 14:15 | 43.24484 | 7.44777 | 30928 ft | 438 kts | 142° |
| 2026-04-23 14:15 | 43.22051 | 7.47270 | 30682 ft | 435 kts | 142° |
| 2026-04-23 14:15 | 43.19638 | 7.49738 | 30195 ft | 432 kts | 142° |
| 2026-04-23 14:15 | 43.17208 | 7.52221 | 29648 ft | 428 kts | 142° |
| 2026-04-23 14:16 | 43.14866 | 7.54617 | 29163 ft | 424 kts | 141° |
| 2026-04-23 14:16 | 43.12515 | 7.57020 | 28723 ft | 419 kts | 142° |
| 2026-04-23 14:16 | 43.10053 | 7.59121 | 28305 ft | 415 kts | 152° |
| 2026-04-23 14:16 | 43.07406 | 7.60644 | 27847 ft | 411 kts | 159° |
| 2026-04-23 14:17 | 43.04733 | 7.61960 | 27413 ft | 405 kts | 159° |
| 2026-04-23 14:17 | 43.02100 | 7.63262 | 26982 ft | 400 kts | 159° |
| 2026-04-23 14:17 | 42.99496 | 7.64552 | 26552 ft | 395 kts | 159° |
| 2026-04-23 14:17 | 42.96928 | 7.65831 | 26130 ft | 390 kts | 159° |
| 2026-04-23 14:18 | 42.94389 | 7.67094 | 25673 ft | 387 kts | 159° |
| 2026-04-23 14:18 | 42.91868 | 7.68345 | 25224 ft | 384 kts | 159° |
| 2026-04-23 14:18 | 42.89365 | 7.69583 | 24772 ft | 381 kts | 158° |
| 2026-04-23 14:18 | 42.87715 | 7.70399 | 24465 ft | 380 kts | 158° |
| 2026-04-23 14:19 | 42.85240 | 7.71620 | 24017 ft | 377 kts | 158° |
| 2026-04-23 14:19 | 42.82778 | 7.72837 | 23497 ft | 375 kts | 158° |
| 2026-04-23 14:19 | 42.80335 | 7.74042 | 23027 ft | 371 kts | 158° |
| 2026-04-23 14:19 | 42.77920 | 7.75233 | 22571 ft | 367 kts | 158° |
| 2026-04-23 14:20 | 42.75529 | 7.76415 | 22133 ft | 364 kts | 158° |
| 2026-04-23 14:20 | 42.73161 | 7.77585 | 21684 ft | 362 kts | 157° |
| 2026-04-23 14:20 | 42.70804 | 7.78751 | 21246 ft | 359 kts | 158° |
| 2026-04-23 14:20 | 42.68464 | 7.79908 | 20816 ft | 357 kts | 156° |
| 2026-04-23 14:21 | 42.66135 | 7.81051 | 20378 ft | 355 kts | 156° |
| 2026-04-23 14:21 | 42.63820 | 7.82184 | 19954 ft | 352 kts | 158° |
| 2026-04-23 14:21 | 42.61519 | 7.83312 | 19528 ft | 351 kts | 158° |
| 2026-04-23 14:21 | 42.59231 | 7.84434 | 19100 ft | 349 kts | 156° |
| 2026-04-23 14:22 | 42.56951 | 7.85552 | 18689 ft | 348 kts | 156° |
| 2026-04-23 14:22 | 42.54680 | 7.86666 | 18220 ft | 346 kts | 156° |
| 2026-04-23 14:22 | 42.52427 | 7.87769 | 17795 ft | 343 kts | 156° |
| 2026-04-23 14:22 | 42.50186 | 7.88862 | 17372 ft | 340 kts | 156° |
| 2026-04-23 14:23 | 42.47966 | 7.89942 | 16969 ft | 338 kts | 157° |
| 2026-04-23 14:23 | 42.45760 | 7.91014 | 16575 ft | 336 kts | 156° |
| 2026-04-23 14:23 | 42.43564 | 7.92081 | 16174 ft | 335 kts | 157° |
| 2026-04-23 14:23 | 42.41377 | 7.93146 | 15783 ft | 333 kts | 157° |
| 2026-04-23 14:24 | 42.39196 | 7.94210 | 15388 ft | 332 kts | 157° |
| 2026-04-23 14:24 | 42.37026 | 7.95268 | 14986 ft | 332 kts | 156° |
| 2026-04-23 14:24 | 42.34858 | 7.96332 | 14601 ft | 330 kts | 154° |
| 2026-04-23 14:24 | 42.32866 | 7.97786 | 14214 ft | 323 kts | 138° |
| 2026-04-23 14:25 | 42.31266 | 7.99791 | 13824 ft | 315 kts | 125° |
| 2026-04-23 14:25 | 42.30087 | 8.02236 | 13426 ft | 307 kts | 111° |
| 2026-04-23 14:25 | 42.29277 | 8.04879 | 13066 ft | 303 kts | 107° |
| 2026-04-23 14:25 | 42.28495 | 8.07504 | 12693 ft | 300 kts | 108° |
| 2026-04-23 14:26 | 42.27713 | 8.10103 | 12327 ft | 298 kts | 109° |
| 2026-04-23 14:26 | 42.26933 | 8.12689 | 11953 ft | 297 kts | 107° |
| 2026-04-23 14:26 | 42.26157 | 8.15262 | 11582 ft | 295 kts | 107° |
| 2026-04-23 14:26 | 42.25385 | 8.17819 | 11220 ft | 293 kts | 107° |
| 2026-04-23 14:27 | 42.24617 | 8.20363 | 10793 ft | 293 kts | 108° |
| 2026-04-23 14:27 | 42.23845 | 8.22927 | 10307 ft | 296 kts | 108° |
| 2026-04-23 14:27 | 42.23066 | 8.25514 | 9799 ft | 299 kts | 108° |
| 2026-04-23 14:27 | 42.22280 | 8.28122 | 9271 ft | 301 kts | 107° |
| 2026-04-23 14:28 | 42.21492 | 8.30736 | 8755 ft | 301 kts | 109° |
| 2026-04-23 14:28 | 42.20701 | 8.33351 | 8238 ft | 301 kts | 109° |
| 2026-04-23 14:28 | 42.19910 | 8.35957 | 7740 ft | 300 kts | 110° |
| 2026-04-23 14:28 | 42.19120 | 8.38558 | 7245 ft | 299 kts | 110° |
| 2026-04-23 14:29 | 42.18336 | 8.41143 | 6759 ft | 297 kts | 110° |
| 2026-04-23 14:29 | 42.17555 | 8.43713 | 6257 ft | 296 kts | 110° |
| 2026-04-23 14:29 | 42.16781 | 8.46256 | 5934 ft | 288 kts | 111° |
| 2026-04-23 14:29 | 42.15872 | 8.48597 | 5733 ft | 277 kts | 123° |
| 2026-04-23 14:30 | 42.14624 | 8.50500 | 5524 ft | 263 kts | 137° |
| 2026-04-23 14:30 | 42.13268 | 8.52011 | 5316 ft | 246 kts | 139° |
| 2026-04-23 14:30 | 42.11972 | 8.53451 | 5143 ft | 236 kts | 139° |
| 2026-04-23 14:30 | 42.10726 | 8.54843 | 4965 ft | 229 kts | 139° |
| 2026-04-23 14:31 | 42.09526 | 8.56194 | 4766 ft | 222 kts | 139° |
| 2026-04-23 14:31 | 42.08358 | 8.57511 | 4589 ft | 216 kts | 139° |
| 2026-04-23 14:31 | 42.07220 | 8.58791 | 4428 ft | 210 kts | 139° |
| 2026-04-23 14:31 | 42.06114 | 8.60034 | 4276 ft | 204 kts | 139° |
| 2026-04-23 14:32 | 42.05050 | 8.61232 | 4145 ft | 194 kts | 139° |
| 2026-04-23 14:32 | 42.04024 | 8.62390 | 3980 ft | 191 kts | 140° |
| 2026-04-23 14:32 | 42.03003 | 8.63536 | 3806 ft | 191 kts | 140° |
| 2026-04-23 14:32 | 42.01980 | 8.64685 | 3634 ft | 192 kts | 139° |
| 2026-04-23 14:33 | 42.01128 | 8.66059 | 3470 ft | 193 kts | 120° |
| 2026-04-23 14:33 | 42.00629 | 8.67740 | 3306 ft | 195 kts | 102° |
| 2026-04-23 14:33 | 42.00396 | 8.69532 | 3135 ft | 195 kts | 99° |
| 2026-04-23 14:33 | 42.00164 | 8.71333 | 3046 ft | 195 kts | 100° |
| 2026-04-23 14:34 | 41.99940 | 8.73055 | 3024 ft | 177 kts | 100° |
| 2026-04-23 14:34 | 41.99734 | 8.74634 | 2804 ft | 169 kts | 100° |
| 2026-04-23 14:34 | 41.99536 | 8.76133 | 2511 ft | 158 kts | 101° |
| 2026-04-23 14:34 | 41.99348 | 8.77548 | 2256 ft | 151 kts | 103° |
| 2026-04-23 14:35 | 41.99168 | 8.78912 | 2010 ft | 146 kts | 102° |
| 2026-04-23 14:35 | 41.98993 | 8.80255 | 1785 ft | 146 kts | 103° |
| 2026-04-23 14:35 | 41.98647 | 8.81515 | 1547 ft | 142 kts | 129° |
| 2026-04-23 14:35 | 41.97955 | 8.82386 | 1329 ft | 136 kts | 153° |
| 2026-04-23 14:36 | 41.97071 | 8.82762 | 1107 ft | 134 kts | 178° |
| 2026-04-23 14:36 | 41.96159 | 8.82596 | 873 ft | 132 kts | 202° |
| 2026-04-23 14:36 | 41.95321 | 8.82075 | 667 ft | 133 kts | 206° |
| 2026-04-23 14:36 | 41.94488 | 8.81556 | 474 ft | 131 kts | 205° |
| 2026-04-23 14:37 | 41.93669 | 8.81044 | 240 ft | 127 kts | 205° |
| 2026-04-23 14:37 | 41.92869 | 8.80543 | 49 ft | 126 kts | 206° |
| 2026-04-23 14:37 | 41.92173 | 8.80109 | 25 ft | 89 kts | 205° |
| 2026-04-23 14:37 | 41.91767 | 8.79855 | 22 ft | 41 kts | 205° |
| 2026-04-23 14:38 | 41.91530 | 8.79709 | 21 ft | 34 kts | 205° |
| 2026-04-23 14:38 | 41.91340 | 8.79590 | 22 ft | 21 kts | 205° |
| 2026-04-23 14:38 | 41.91253 | 8.79524 | 22 ft | 13 kts | 228° |
| 2026-04-23 14:38 | 41.91275 | 8.79412 | 22 ft | 15 kts | 326° |
| 2026-04-23 14:39 | 41.91364 | 8.79354 | 23 ft | 14 kts | 334° |
| 2026-04-23 14:39 | 41.91453 | 8.79334 | 21 ft | 13 kts | 8° |
| 2026-04-23 14:39 | 41.91540 | 8.79382 | 22 ft | 14 kts | 25° |
| 2026-04-23 14:39 | 41.91629 | 8.79438 | 21 ft | 14 kts | 25° |
| 2026-04-23 14:40 | 41.91713 | 8.79490 | 21 ft | 13 kts | 25° |
| 2026-04-23 14:40 | 41.91784 | 8.79527 | 21 ft | 8 kts | 360° |
| 2026-04-23 14:40 | 41.91835 | 8.79510 | 21 ft | 5 kts | 345° |
| 2026-04-23 14:40 | 41.91849 | 8.79505 | 21 ft | 0 kts | 345° |